createdAt,value
2023-05-23T00:02:08.468Z,75.80
2023-05-23T00:07:11.013Z,76.80
2023-05-23T00:12:13.318Z,76.10
2023-05-23T00:17:17.880Z,74.90
2023-05-23T00:22:20.264Z,76.40
2023-05-23T00:27:22.428Z,76.50
2023-05-23T00:32:24.603Z,77.00
2023-05-23T00:37:28.476Z,76.20
2023-05-23T00:42:32.864Z,78.90
2023-05-23T00:47:35.327Z,77.70
2023-05-23T00:52:44.554Z,77.30
2023-05-23T00:57:47.498Z,76.70
2023-05-23T01:02:53.870Z,76.90
2023-05-23T01:07:56.351Z,76.30
2023-05-23T01:13:38.592Z,76.40
2023-05-23T01:18:51.424Z,75.40
2023-05-23T01:24:05.334Z,76.10
2023-05-23T01:29:45.241Z,77.00
2023-05-23T01:34:49.112Z,75.80
2023-05-23T01:39:51.246Z,76.70
2023-05-23T01:44:53.625Z,76.40
2023-05-23T01:49:59.637Z,76.40
2023-05-23T01:55:09.997Z,76.40
2023-05-23T02:00:15.164Z,76.30
2023-05-23T02:05:17.634Z,76.70
2023-05-23T02:10:21.250Z,75.90
2023-05-23T02:15:23.504Z,76.70
2023-05-23T02:20:26.255Z,76.40
2023-05-23T02:25:28.404Z,77.00
2023-05-23T02:30:30.578Z,76.50
2023-05-23T02:35:33.180Z,76.70
2023-05-23T02:40:35.445Z,77.10
2023-05-23T02:45:37.767Z,77.70
2023-05-23T02:50:40.575Z,77.20
2023-05-23T02:55:43.302Z,77.00
2023-05-23T03:00:45.773Z,77.40
2023-05-23T03:05:48.969Z,77.50
2023-05-23T03:10:51.627Z,77.50
2023-05-23T03:15:53.741Z,77.70
2023-05-23T03:20:56.089Z,77.70
2023-05-23T03:26:00.041Z,78.10
2023-05-23T03:31:02.965Z,77.60
2023-05-23T03:36:05.275Z,77.20
2023-05-23T03:41:07.587Z,76.70
2023-05-23T03:46:10.084Z,76.50
2023-05-23T03:51:13.678Z,77.10
2023-05-23T03:56:17.086Z,76.60
2023-05-23T04:01:19.376Z,77.10
2023-05-23T04:06:23.361Z,76.70
2023-05-23T04:11:25.866Z,76.60
2023-05-23T04:16:28.678Z,76.80
2023-05-23T04:21:31.865Z,76.90
2023-05-23T04:26:43.938Z,76.90
2023-05-23T04:31:46.551Z,76.60
2023-05-23T04:36:49.950Z,76.90
2023-05-23T04:41:52.438Z,76.30
2023-05-23T04:47:03.253Z,76.90
2023-05-23T04:52:23.940Z,76.40
2023-05-23T04:57:27.091Z,77.00
2023-05-23T05:02:35.442Z,77.50
2023-05-23T05:07:38.197Z,75.80
2023-05-23T05:12:41.679Z,76.00
2023-05-23T05:17:46.461Z,76.00
2023-05-23T05:22:58.099Z,76.10
2023-05-23T05:28:09.084Z,76.80
2023-05-23T05:33:16.309Z,76.40
2023-05-23T05:38:19.105Z,76.30
2023-05-23T05:43:22.732Z,77.40
2023-05-23T05:48:25.120Z,76.50
2023-05-23T05:53:30.113Z,77.00
2023-05-23T05:58:32.427Z,76.00
2023-05-23T06:03:41.641Z,75.30
2023-05-23T06:08:44.653Z,75.30
2023-05-23T06:13:51.091Z,76.10
2023-05-23T06:18:54.222Z,75.10
2023-05-23T06:23:58.220Z,75.70
2023-05-23T06:29:00.745Z,75.40
2023-05-23T06:34:03.197Z,75.40
2023-05-23T06:39:05.395Z,75.30
2023-05-23T06:44:10.896Z,75.30
2023-05-23T06:49:17.031Z,75.10
2023-05-23T06:54:21.099Z,75.10
2023-05-23T06:59:23.408Z,75.30
2023-05-23T07:04:25.992Z,75.30
2023-05-23T07:09:28.920Z,74.90
2023-05-23T07:14:42.415Z,75.20
2023-05-23T07:19:46.733Z,75.60
2023-05-23T07:24:49.912Z,75.50
2023-05-23T07:29:53.115Z,74.20
2023-05-23T07:34:55.880Z,74.50
2023-05-23T07:39:58.161Z,74.60
2023-05-23T07:45:01.409Z,75.10
2023-05-23T07:50:05.793Z,75.40
2023-05-23T07:55:08.837Z,76.00
2023-05-23T08:00:12.585Z,75.70
2023-05-23T08:05:19.590Z,73.80
2023-05-23T08:10:28.518Z,75.20
2023-05-23T08:15:37.729Z,74.70
2023-05-23T08:20:49.414Z,73.60
2023-05-23T08:25:53.139Z,73.10
2023-05-23T08:30:57.374Z,73.70
2023-05-23T08:36:01.197Z,74.50
2023-05-23T08:41:07.263Z,72.50
2023-05-23T08:46:10.155Z,74.60
2023-05-23T08:51:16.025Z,73.30
2023-05-23T08:56:19.448Z,72.20
2023-05-23T09:01:25.138Z,72.10
2023-05-23T09:06:32.538Z,72.70
2023-05-23T09:11:36.391Z,73.50
2023-05-23T09:16:41.955Z,71.70
2023-05-23T09:21:49.530Z,71.80
2023-05-23T09:26:59.576Z,71.80
2023-05-23T09:32:22.177Z,73.20
2023-05-23T09:37:37.877Z,71.80
2023-05-23T09:42:48.572Z,71.80
2023-05-23T09:47:53.920Z,72.30
2023-05-23T09:52:56.200Z,72.40
2023-05-23T09:58:04.123Z,70.10
2023-05-23T10:03:14.580Z,69.30
2023-05-23T10:08:50.520Z,70.40
2023-05-23T10:13:53.629Z,70.70
2023-05-23T10:19:07.127Z,68.30
2023-05-23T10:24:09.719Z,70.50
2023-05-23T10:29:11.919Z,66.80
2023-05-23T10:34:52.392Z,63.90
2023-05-23T10:40:00.748Z,65.90
2023-05-23T10:45:20.818Z,67.40
2023-05-23T10:50:42.104Z,68.30
2023-05-23T10:55:49.922Z,66.80
2023-05-23T11:01:05.557Z,67.50
2023-05-23T11:06:08.187Z,67.90
2023-05-23T11:11:10.424Z,66.20
2023-05-23T11:16:29.322Z,68.50
2023-05-23T11:21:32.277Z,66.90
2023-05-23T11:26:34.448Z,66.70
2023-05-23T11:31:40.778Z,68.60
2023-05-23T11:36:43.178Z,65.10
2023-05-23T11:41:45.799Z,61.30
2023-05-23T11:47:06.967Z,62.90
2023-05-23T11:52:09.389Z,66.30
2023-05-23T11:57:14.390Z,64.80
2023-05-23T12:02:16.631Z,62.20
2023-05-23T12:07:23.161Z,60.90
2023-05-23T12:12:25.428Z,65.80
2023-05-23T12:17:27.812Z,64.90
2023-05-23T12:22:29.990Z,63.90
2023-05-23T12:27:37.451Z,63.60
2023-05-23T12:32:45.121Z,57.10
2023-05-23T12:37:47.678Z,57.30
2023-05-23T12:42:58.839Z,58.20
2023-05-23T12:48:02.460Z,60.40
2023-05-23T12:53:04.707Z,60.80
2023-05-23T12:58:06.979Z,58.50
2023-05-23T13:03:09.761Z,57.80
2023-05-23T13:08:12.553Z,56.70
2023-05-23T13:13:15.381Z,56.50
2023-05-23T13:18:18.145Z,56.30
2023-05-23T13:23:21.056Z,56.30
2023-05-23T13:28:23.180Z,57.40
2023-05-23T13:33:25.964Z,58.10
2023-05-23T13:38:31.030Z,59.20
2023-05-23T13:43:33.252Z,61.00
2023-05-23T13:48:35.598Z,61.80
2023-05-23T13:53:37.796Z,61.10
2023-05-23T13:58:40.077Z,61.80
2023-05-23T14:03:42.202Z,62.90
2023-05-23T14:08:44.375Z,60.50
2023-05-23T14:13:46.594Z,62.20
2023-05-23T14:18:49.156Z,61.00
2023-05-23T14:23:51.715Z,63.10
2023-05-23T14:28:54.021Z,63.40
2023-05-23T14:33:57.361Z,60.60
2023-05-23T14:39:01.421Z,60.50
2023-05-23T14:44:04.625Z,60.10
2023-05-23T14:49:06.848Z,59.00
2023-05-23T14:54:09.735Z,60.80
2023-05-23T14:59:11.940Z,61.90
2023-05-23T15:04:14.529Z,62.90
2023-05-23T15:09:18.351Z,62.10
2023-05-23T15:14:22.171Z,61.90
2023-05-23T15:19:24.520Z,63.60
2023-05-23T15:24:28.448Z,63.20
2023-05-23T15:29:33.207Z,62.30
2023-05-23T15:34:36.316Z,62.80
2023-05-23T15:39:38.492Z,62.30
2023-05-23T15:44:40.937Z,63.40
2023-05-23T15:49:43.179Z,62.20
2023-05-23T15:54:45.404Z,62.20
2023-05-23T15:59:47.738Z,62.00
2023-05-23T16:04:50.287Z,62.70
2023-05-23T16:09:52.463Z,63.10
2023-05-23T16:14:54.691Z,62.00
2023-05-23T16:19:56.873Z,63.10
2023-05-23T16:24:59.157Z,64.60
2023-05-23T16:30:01.603Z,64.90
2023-05-23T16:35:04.147Z,64.40
2023-05-23T16:40:07.390Z,64.90
2023-05-23T16:45:09.994Z,62.80
2023-05-23T16:50:12.677Z,63.70
2023-05-23T16:55:14.891Z,65.30
2023-05-23T17:00:17.673Z,65.40
2023-05-23T17:05:20.422Z,65.70
2023-05-23T17:10:22.934Z,66.20
2023-05-23T17:15:25.263Z,66.30
2023-05-23T17:20:27.630Z,65.40
2023-05-23T17:25:29.858Z,65.00
2023-05-23T17:30:32.121Z,65.40
2023-05-23T17:35:34.562Z,64.50
2023-05-23T17:40:36.792Z,66.90
2023-05-23T17:45:39.089Z,65.30
2023-05-23T17:50:42.070Z,66.00
2023-05-23T17:55:44.580Z,66.40
2023-05-23T18:00:47.132Z,65.80
2023-05-23T18:05:49.526Z,65.50
2023-05-23T18:10:51.822Z,65.80
2023-05-23T18:15:53.953Z,66.10
2023-05-23T18:20:56.464Z,65.60
2023-05-23T18:25:58.754Z,65.90
2023-05-23T18:31:01.951Z,67.20
2023-05-23T18:36:04.638Z,66.40
2023-05-23T18:41:06.965Z,66.30
2023-05-23T18:46:10.213Z,64.90
2023-05-23T18:51:12.583Z,65.40
2023-05-23T18:56:16.300Z,66.70
2023-05-23T19:01:19.026Z,65.10
2023-05-23T19:06:21.573Z,65.60
2023-05-23T19:11:24.482Z,65.00
2023-05-23T19:16:26.689Z,65.90
2023-05-23T19:21:28.980Z,65.40
2023-05-23T19:26:31.518Z,67.40
2023-05-23T19:31:34.135Z,66.70
2023-05-23T19:36:36.751Z,66.00
2023-05-23T19:41:40.400Z,65.30
2023-05-23T19:46:42.568Z,65.40
2023-05-23T19:51:45.152Z,67.00
2023-05-23T19:56:47.716Z,66.50
2023-05-23T20:01:50.476Z,65.60
2023-05-23T20:06:52.998Z,67.20
2023-05-23T20:11:55.190Z,68.60
2023-05-23T20:16:57.534Z,68.40
2023-05-23T20:21:59.698Z,65.30
2023-05-23T20:27:01.960Z,65.40
2023-05-23T20:32:04.563Z,64.60
2023-05-23T20:37:06.826Z,67.90
2023-05-23T20:42:10.596Z,64.80
2023-05-23T20:47:13.645Z,66.60
2023-05-23T20:52:15.971Z,64.50
2023-05-23T20:57:18.365Z,66.20
2023-05-23T21:02:20.887Z,67.10
2023-05-23T21:07:23.103Z,64.80
2023-05-23T21:12:25.344Z,65.40
2023-05-23T21:17:27.676Z,65.10
2023-05-23T21:22:29.808Z,64.40
2023-05-23T21:27:32.011Z,65.70
2023-05-23T21:32:34.241Z,68.20
2023-05-23T21:37:38.959Z,65.40
2023-05-23T21:42:41.194Z,66.70
2023-05-23T21:47:43.379Z,65.90
2023-05-23T21:52:45.706Z,65.20
2023-05-23T21:57:47.844Z,65.00
2023-05-23T22:02:50.475Z,65.60
2023-05-23T22:07:52.860Z,65.30
2023-05-23T22:12:55.043Z,64.90
2023-05-23T22:17:57.560Z,64.40
2023-05-23T22:23:02.326Z,67.00
2023-05-23T22:28:04.717Z,64.20
2023-05-23T22:33:13.194Z,64.30
2023-05-23T22:38:15.719Z,64.10
2023-05-23T22:43:18.417Z,65.20
2023-05-23T22:48:20.949Z,63.70
2023-05-23T22:53:23.105Z,65.10
2023-05-23T22:58:28.153Z,68.10
2023-05-23T23:03:30.444Z,66.50
2023-05-23T23:08:32.926Z,68.30
2023-05-23T23:13:35.114Z,68.10
2023-05-23T23:18:37.460Z,65.80
2023-05-23T23:23:39.664Z,70.10
2023-05-23T23:28:41.806Z,69.20
2023-05-23T23:33:43.989Z,66.70
2023-05-23T23:38:46.287Z,66.90
2023-05-23T23:43:48.693Z,66.60
2023-05-23T23:48:51.032Z,67.50
2023-05-23T23:53:53.565Z,69.70
2023-05-23T23:58:55.805Z,64.60
